| time (UTC) | temp C | wind direction | speed KPH | gust KPH | rain 1hr cm | rain 24hr cm | rain mn cm | humidity % | barometer mb |
| 20260506193036 | 13 | 253 | 1.6 | 17.7 | 0.13 | 0.53 | 0.53 | 92 | 1009.2 |
| 20260506191542 | 13 | 0 | 1.6 | 12.9 | 0.18 | 0.53 | 0.53 | 92 | 1009.5 |
| 20260506190041 | 13 | 254 | 3.2 | 14.5 | 0.18 | 0.51 | 0.51 | 91 | 1009.4 |
| 20260506184538 | 13 | 251 | 3.2 | 8.0 | 0.20 | 0.43 | 0.43 | 91 | 1009.6 |
| 20260506183034 | 13 | 251 | 3.2 | 11.3 | 0.30 | 0.41 | 0.41 | 90 | 1009.4 |
| 20260506181543 | 13 | 250 | 1.6 | 11.3 | 0.33 | 0.36 | 0.36 | 90 | 1009.5 |
| 20260506180041 | 14 | 250 | 1.6 | 8.0 | 0.30 | 0.30 | 0.30 | 89 | 1009.9 |
| 20260506174546 | 14 | 250 | 1.6 | 9.7 | 0.23 | 0.23 | 0.23 | 88 | 1010.2 |
| 20260506173041 | 15 | 249 | 1.6 | 6.4 | 0.10 | 0.10 | 0.10 | 86 | 1010.6 |
| 20260506171537 | 16 | 0 | 1.6 | 9.7 | 0.03 | 0.03 | 0.03 | 83 | 1010.9 |
| 20260506170036 | 17 | 247 | 6.4 | 16.1 | 0.00 | 0.00 | 0.00 | 78 | 1011.0 |
| 20260506164541 | 18 | 212 | 3.2 | 16.1 | 0.00 | 0.00 | 0.00 | 73 | 1010.7 |
| 20260506163048 | 18 | 210 | 3.2 | 14.5 | 0.00 | 0.00 | 0.00 | 72 | 1010.5 |
| 20260506161541 | 18 | 214 | 4.8 | 22.5 | 0.00 | 0.00 | 0.00 | 71 | 1010.7 |
| 20260506160042 | 18 | 169 | 3.2 | 12.9 | 0.00 | 0.00 | 0.00 | 70 | 1011.0 |
| 20260506154540 | 18 | 205 | 4.8 | 16.1 | 0.00 | 0.00 | 0.00 | 69 | 1010.9 |
| 20260506153041 | 18 | 202 | 4.8 | 17.7 | 0.00 | 0.00 | 0.00 | 68 | 1011.0 |
| 20260506151542 | 19 | 214 | 1.6 | 8.0 | 0.00 | 0.00 | 0.00 | 68 | 1011.1 |
| 20260506150050 | 18 | 197 | 6.4 | 20.9 | 0.00 | 0.00 | 0.00 | 69 | 1011.2 |
| 20260506144558 | 18 | 256 | 3.2 | 14.5 | 0.00 | 0.00 | 0.00 | 71 | 1011.5 |
| 20260506143050 | 18 | 246 | 6.4 | 19.3 | 0.00 | 0.00 | 0.00 | 72 | 1011.4 |
| 20260506141536 | 17 | 283 | 3.2 | 12.9 | 0.00 | 0.00 | 0.00 | 74 | 1011.4 |
| 20260506140053 | 17 | 267 | 3.2 | 11.3 | 0.00 | 0.00 | 0.00 | 76 | 1011.4 |
| 20260506134541 | 17 | 266 | 3.2 | 11.3 | 0.00 | 0.00 | 0.00 | 77 | 1011.3 |
| 20260506133047 | 16 | 271 | 3.2 | 9.7 | 0.00 | 0.00 | 0.00 | 79 | 1011.3 |
| 20260506131545 | 16 | 271 | 3.2 | 9.7 | 0.00 | 0.00 | 0.00 | 81 | 1011.4 |
| 20260506130105 | 15 | 268 | 3.2 | 9.7 | 0.00 | 0.00 | 0.00 | 82 | 1011.7 |
| 20260506124537 | 15 | 268 | 1.6 | 12.9 | 0.00 | 0.00 | 0.00 | 83 | 1011.9 |
| 20260506123040 | 15 | 262 | 4.8 | 14.5 | 0.00 | 0.00 | 0.00 | 83 | 1011.8 |
| 20260506121551 | 15 | 207 | 4.8 | 11.3 | 0.00 | 0.00 | 0.00 | 84 | 1011.6 |
| 20260506120041 | 15 | 218 | 3.2 | 14.5 | 0.00 | 0.00 | 0.00 | 84 | 1011.7 |
| 20260506114537 | 14 | 229 | 1.6 | 12.9 | 0.00 | 0.00 | 0.00 | 85 | 1011.8 |
| 20260506113038 | 14 | 226 | 4.8 | 16.1 | 0.00 | 0.00 | 0.00 | 85 | 1011.5 |
| 20260506111542 | 13 | 222 | 4.8 | 11.3 | 0.00 | 0.00 | 0.00 | 86 | 1012.2 |
| 20260506110044 | 13 | 219 | 1.6 | 11.3 | 0.00 | 0.00 | 0.00 | 86 | 1012.0 |
| 20260506104548 | 13 | 219 | 4.8 | 8.0 | 0.00 | 0.00 | 0.00 | 87 | 1012.1 |
| 20260506103040 | 13 | 219 | 1.6 | 4.8 | 0.00 | 0.00 | 0.00 | 87 | 1012.0 |
| 20260506101537 | 12 | 219 | 3.2 | 8.0 | 0.00 | 0.00 | 0.00 | 88 | 1011.8 |
| 20260506100037 | 12 | 219 | 1.6 | 6.4 | 0.00 | 0.00 | 0.00 | 87 | 1011.8 |
| 20260506094544 | 12 | 219 | 1.6 | 6.4 | 0.00 | 0.00 | 0.00 | 87 | 1011.7 |
| 20260506093044 | 12 | 219 | 4.8 | 11.3 | 0.00 | 0.00 | 0.00 | 87 | 1011.9 |
| 20260506091541 | 13 | 218 | 3.2 | 16.1 | 0.00 | 0.00 | 0.00 | 86 | 1011.7 |
| 20260506090042 | 13 | 219 | 1.6 | 12.9 | 0.00 | 0.00 | 0.00 | 86 | 1011.7 |
| 20260506084540 | 13 | 219 | 3.2 | 6.4 | 0.00 | 0.00 | 0.00 | 86 | 1012.1 |
| 20260506083053 | 13 | 219 | 3.2 | 12.9 | 0.00 | 0.00 | 0.00 | 86 | 1011.9 |
| 20260506081557 | 13 | 221 | 1.6 | 8.0 | 0.00 | 0.00 | 0.00 | 85 | 1011.9 |
| 20260506073041 | 13 | 224 | 1.6 | 9.7 | 0.00 | 0.00 | 0.00 | 84 | 1012.0 |
| 20260506071539 | 13 | 224 | 3.2 | 8.0 | 0.00 | 0.00 | 0.00 | 83 | 1012.2 |
| 20260506061546 | 14 | 240 | 3.2 | 11.3 | 0.00 | 0.00 | 0.00 | 81 | 1011.9 |
| 20260506044548 | 16 | 240 | 3.2 | 16.1 | 0.00 | 0.00 | 0.00 | 74 | 1012.5 |
| 20260506043041 | 16 | 224 | 4.8 | 20.9 | 0.00 | 0.00 | 0.00 | 74 | 1012.4 |
| 20260506041537 | 16 | 262 | 3.2 | 14.5 | 0.00 | 0.00 | 0.00 | 72 | 1012.4 |
| 20260506040043 | 16 | 271 | 4.8 | 20.9 | 0.00 | 0.00 | 0.00 | 71 | 1012.5 |
| 20260506034559 | 16 | 257 | 4.8 | 16.1 | 0.00 | 0.00 | 0.00 | 71 | 1012.5 |
| 20260506033042 | 16 | 247 | 4.8 | 14.5 | 0.00 | 0.00 | 0.00 | 71 | 1012.6 |
| 20260506031549 | 16 | 219 | 3.2 | 11.3 | 0.00 | 0.00 | 0.00 | 71 | 1012.4 |
| 20260506030037 | 16 | 229 | 1.6 | 17.7 | 0.00 | 0.00 | 0.00 | 71 | 1012.5 |
| 20260506024536 | 15 | 236 | 1.6 | 8.0 | 0.00 | 0.00 | 0.00 | 72 | 1012.4 |
| 20260506023035 | 16 | 236 | 3.2 | 9.7 | 0.00 | 0.00 | 0.00 | 71 | 1012.4 |
| 20260506021541 | 15 | 236 | 1.6 | 9.7 | 0.00 | 0.00 | 0.00 | 71 | 1012.4 |
| 20260506020041 | 16 | 233 | 0.0 | 22.5 | 0.00 | 0.00 | 0.00 | 70 | 1012.4 |
| 20260506014541 | 16 | 236 | 3.2 | 12.9 | 0.00 | 0.00 | 0.00 | 69 | 1012.4 |
| 20260506013041 | 16 | 233 | 4.8 | 12.9 | 0.00 | 0.00 | 0.00 | 68 | 1012.2 |
| 20260506011541 | 16 | 223 | 3.2 | 12.9 | 0.00 | 0.00 | 0.00 | 67 | 1012.0 |
| 20260506010051 | 16 | 238 | 3.2 | 16.1 | 0.00 | 0.00 | 0.00 | 66 | 1011.8 |
| 20260506004541 | 17 | 233 | 3.2 | 12.9 | 0.00 | 0.00 | 0.00 | 65 | 1011.6 |
| 20260506003041 | 17 | 0 | 1.6 | 12.9 | 0.00 | 0.00 | 0.00 | 65 | 1011.4 |
| 20260506001545 | 17 | 224 | 1.6 | 8.0 | 0.00 | 0.00 | 0.00 | 64 | 1011.4 |
| 20260506000040 | 17 | 224 | 4.8 | 14.5 | 0.00 | 0.00 | 0.00 | 63 | 1011.0 |
| 20260505234536 | 18 | 229 | 3.2 | 19.3 | 0.00 | 0.00 | 0.00 | 62 | 1010.7 |
| 20260505233047 | 18 | 252 | 3.2 | 14.5 | 0.00 | 0.00 | 0.00 | 61 | 1010.4 |
| 20260505231535 | 18 | 243 | 4.8 | 14.5 | 0.00 | 0.00 | 0.00 | 60 | 1010.4 |
| 20260505230051 | 19 | 199 | 1.6 | 8.0 | 0.00 | 0.00 | 0.00 | 60 | 1010.2 |
| 20260505224544 | 20 | 199 | 1.6 | 9.7 | 0.00 | 0.00 | 0.00 | 58 | 1010.2 |
| 20260505223045 | 20 | 199 | 3.2 | 12.9 | 0.00 | 0.00 | 0.00 | 57 | 1010.0 |
| 20260505221534 | 20 | 210 | 4.8 | 14.5 | 0.00 | 0.00 | 0.00 | 56 | 1009.9 |
| 20260505220035 | 21 | 201 | 1.6 | 24.1 | 0.00 | 0.00 | 0.00 | 55 | 1009.8 |
| 20260505214541 | 21 | 205 | 3.2 | 11.3 | 0.00 | 0.00 | 0.00 | 54 | 1010.0 |
| 20260505213040 | 21 | 209 | 3.2 | 12.9 | 0.00 | 0.00 | 0.00 | 54 | 1009.7 |
| 20260505211546 | 22 | 209 | 6.4 | 17.7 | 0.00 | 0.00 | 0.00 | 52 | 1009.9 |
| 20260505210044 | 22 | 190 | 4.8 | 14.5 | 0.00 | 0.00 | 0.00 | 52 | 1009.8 |
| 20260505204541 | 22 | 163 | 6.4 | 20.9 | 0.00 | 0.00 | 0.00 | 49 | 1009.9 |
| 20260505203041 | 23 | 219 | 3.2 | 17.7 | 0.00 | 0.00 | 0.00 | 51 | 1009.8 |
| 20260505201550 | 23 | 221 | 8.0 | 25.7 | 0.00 | 0.00 | 0.00 | 49 | 1009.7 |
| 20260505200037 | 23 | 229 | 6.4 | 19.3 | 0.00 | 0.00 | 0.00 | 50 | 1009.6 |
| 20260505194536 | 24 | 155 | 4.8 | 16.1 | 0.00 | 0.00 | 0.00 | 46 | 1009.8 |